createdAt,value
2018-04-26T00:03:30.223Z,18.90
2018-04-26T00:05:57.249Z,18.80
2018-04-26T00:08:24.244Z,18.80
2018-04-26T00:10:51.231Z,18.70
2018-04-26T00:13:19.228Z,18.60
2018-04-26T00:15:46.221Z,18.40
2018-04-26T00:18:13.247Z,18.30
2018-04-26T00:20:40.275Z,18.30
2018-04-26T00:23:07.262Z,18.20
2018-04-26T00:25:34.258Z,18.10
2018-04-26T00:28:01.296Z,18.10
2018-04-26T00:30:28.292Z,18.10
2018-04-26T00:32:55.281Z,18.10
2018-04-26T00:35:23.279Z,18.10
2018-04-26T00:37:50.289Z,18.20
2018-04-26T00:40:18.167Z,18.20
2018-04-26T00:42:45.206Z,18.20
2018-04-26T00:45:13.064Z,18.30
2018-04-26T00:47:40.056Z,18.30
2018-04-26T00:52:46.532Z,17.90
2018-04-26T00:55:14.014Z,18.00
2018-04-26T00:57:41.013Z,18.20
2018-04-26T01:00:08.004Z,18.20
2018-04-26T01:02:35.433Z,18.10
2018-04-26T01:05:02.417Z,18.10
2018-04-26T01:07:29.399Z,17.90
2018-04-26T01:09:56.420Z,17.90
2018-04-26T01:12:23.415Z,17.90
2018-04-26T01:14:50.435Z,18.00
2018-04-26T01:17:18.398Z,18.00
2018-04-26T01:19:45.401Z,18.00
2018-04-26T01:22:12.423Z,17.90
2018-04-26T01:24:39.448Z,17.90
2018-04-26T01:27:06.459Z,17.80
2018-04-26T01:29:33.451Z,17.70
2018-04-26T01:32:00.567Z,17.80
2018-04-26T01:34:27.482Z,17.70
2018-04-26T01:37:06.306Z,17.80
2018-04-26T01:39:33.305Z,17.70
2018-04-26T01:42:00.293Z,17.70
2018-04-26T01:44:27.339Z,17.80
2018-04-26T01:46:54.332Z,17.70
2018-04-26T01:51:48.437Z,17.70
2018-04-26T01:54:15.426Z,17.70
2018-04-26T01:56:42.410Z,17.70
2018-04-26T01:59:09.449Z,17.40
2018-04-26T02:04:04.488Z,17.40
2018-04-26T02:06:31.518Z,17.40
2018-04-26T02:11:25.578Z,17.40
2018-04-26T02:13:53.365Z,17.40
2018-04-26T02:19:00.868Z,17.40
2018-04-26T02:21:27.853Z,17.60
2018-04-26T02:23:54.841Z,17.70
2018-04-26T02:26:21.887Z,17.70
2018-04-26T02:28:48.892Z,17.70
2018-04-26T02:31:15.883Z,17.70
2018-04-26T02:33:42.915Z,17.70
2018-04-26T02:36:09.905Z,17.50
2018-04-26T02:38:36.900Z,17.40
2018-04-26T02:41:03.922Z,17.20
2018-04-26T02:43:30.913Z,17.10
2018-04-26T02:45:57.911Z,16.80
2018-04-26T02:48:24.956Z,16.80
2018-04-26T02:50:51.943Z,16.90
2018-04-26T02:53:18.929Z,17.00
2018-04-26T02:55:45.956Z,17.20
2018-04-26T02:58:12.940Z,17.20
2018-04-26T03:00:40.776Z,17.30
2018-04-26T03:03:07.821Z,17.20
2018-04-26T03:05:34.783Z,17.20
2018-04-26T03:08:01.785Z,17.20
2018-04-26T03:10:28.804Z,17.20
2018-04-26T03:12:55.879Z,17.10
2018-04-26T03:15:22.789Z,17.20
2018-04-26T03:17:49.822Z,17.10
2018-04-26T03:20:16.817Z,17.10
2018-04-26T03:22:43.796Z,17.00
2018-04-26T03:25:10.830Z,16.80
2018-04-26T03:27:37.809Z,17.00
2018-04-26T03:30:04.804Z,16.80
2018-04-26T03:32:32.782Z,16.80
2018-04-26T03:34:59.786Z,16.70
2018-04-26T03:37:26.801Z,16.70
2018-04-26T03:39:53.794Z,16.60
2018-04-26T03:44:59.298Z,16.40
2018-04-26T03:47:27.247Z,16.40
2018-04-26T03:49:54.253Z,16.30
2018-04-26T03:52:21.271Z,16.10
2018-04-26T03:54:48.261Z,16.10
2018-04-26T03:57:15.274Z,16.10
2018-04-26T03:59:54.018Z,16.20
2018-04-26T04:02:32.862Z,16.10
2018-04-26T04:07:47.892Z,16.20
2018-04-26T04:10:14.913Z,16.40
2018-04-26T04:12:42.852Z,16.40
2018-04-26T04:15:09.841Z,16.30
2018-04-26T04:17:37.189Z,16.30
2018-04-26T04:20:04.213Z,16.10
2018-04-26T04:22:31.208Z,16.10
2018-04-26T04:24:58.249Z,16.10
2018-04-26T04:27:25.240Z,16.10
2018-04-26T04:29:52.244Z,15.90
2018-04-26T04:32:21.698Z,16.00
2018-04-26T04:34:48.633Z,15.50
2018-04-26T04:37:15.636Z,15.60
2018-04-26T04:39:42.666Z,15.50
2018-04-26T04:42:09.678Z,15.40
2018-04-26T04:44:37.646Z,15.30
2018-04-26T04:47:04.674Z,15.20
2018-04-26T04:49:31.669Z,15.20
2018-04-26T04:51:58.673Z,15.00
2018-04-26T04:54:26.561Z,14.70
2018-04-26T04:56:54.369Z,14.60
2018-04-26T04:59:21.371Z,14.40
2018-04-26T05:01:48.399Z,14.30
2018-04-26T05:04:15.415Z,14.20
2018-04-26T05:06:42.420Z,14.20
2018-04-26T05:09:09.432Z,14.20
2018-04-26T05:11:36.424Z,14.30
2018-04-26T05:14:03.409Z,14.30
2018-04-26T05:16:30.456Z,14.20
2018-04-26T05:18:57.449Z,14.20
2018-04-26T05:21:24.436Z,14.10
2018-04-26T05:26:18.557Z,13.80
2018-04-26T05:28:45.575Z,13.80
2018-04-26T05:36:20.698Z,13.40
2018-04-26T05:38:47.701Z,13.50
2018-04-26T05:41:14.705Z,13.60
2018-04-26T05:43:41.746Z,13.70
2018-04-26T05:46:09.594Z,13.90
2018-04-26T05:48:37.419Z,13.90
2018-04-26T05:51:04.449Z,14.00
2018-04-26T05:53:31.453Z,14.10
2018-04-26T05:55:58.487Z,14.20
2018-04-26T05:58:25.477Z,14.20
2018-04-26T06:03:20.412Z,14.20
2018-04-26T06:05:47.441Z,14.10
2018-04-26T06:08:14.441Z,14.20
2018-04-26T06:10:41.426Z,14.40
2018-04-26T06:13:08.448Z,14.40
2018-04-26T06:15:35.445Z,14.40
2018-04-26T06:18:02.447Z,14.40
2018-04-26T06:20:29.479Z,14.30
2018-04-26T06:25:34.645Z,14.20
2018-04-26T06:28:01.627Z,14.20
2018-04-26T06:30:28.627Z,14.20
2018-04-26T06:32:55.659Z,14.00
2018-04-26T06:35:22.660Z,14.00
2018-04-26T06:37:49.648Z,14.10
2018-04-26T06:40:16.668Z,14.10
2018-04-26T06:42:44.477Z,14.10
2018-04-26T06:45:11.480Z,14.10
2018-04-26T06:47:38.523Z,14.30
2018-04-26T06:50:05.530Z,14.30
2018-04-26T06:52:32.528Z,14.20
2018-04-26T06:54:59.550Z,14.20
2018-04-26T06:57:26.543Z,14.10
2018-04-26T06:59:53.565Z,14.00
2018-04-26T07:02:20.606Z,14.00
2018-04-26T07:04:47.633Z,14.20
2018-04-26T07:07:14.633Z,14.30
2018-04-26T07:09:41.655Z,14.30
2018-04-26T07:12:08.666Z,14.40
2018-04-26T07:14:36.369Z,14.40
2018-04-26T07:17:03.407Z,14.10
2018-04-26T07:19:30.411Z,14.10
2018-04-26T07:21:57.422Z,13.90
2018-04-26T07:24:24.444Z,13.90
2018-04-26T07:26:51.434Z,13.80
2018-04-26T07:31:45.551Z,14.10
2018-04-26T07:34:13.805Z,14.10
2018-04-26T07:36:40.797Z,14.10
2018-04-26T07:39:08.578Z,14.20
2018-04-26T07:41:35.562Z,14.00
2018-04-26T07:44:02.565Z,14.00
2018-04-26T07:46:29.600Z,13.70
2018-04-26T07:48:56.602Z,13.60
2018-04-26T07:54:03.878Z,13.30
2018-04-26T07:56:30.878Z,13.40
2018-04-26T07:58:57.871Z,13.30
2018-04-26T08:03:51.993Z,13.00
2018-04-26T08:06:19.009Z,13.10
2018-04-26T08:08:46.033Z,13.10
2018-04-26T08:11:13.028Z,13.00
2018-04-26T08:13:40.019Z,12.90
2018-04-26T08:16:07.051Z,12.90
2018-04-26T08:18:34.048Z,12.90
2018-04-26T08:21:01.048Z,12.90
2018-04-26T08:23:28.081Z,13.00
2018-04-26T08:25:55.070Z,12.90
2018-04-26T08:28:22.070Z,12.90
2018-04-26T08:30:49.119Z,12.80
2018-04-26T08:33:16.120Z,12.80
2018-04-26T08:38:10.234Z,13.00
2018-04-26T08:40:37.238Z,13.00
2018-04-26T08:45:31.836Z,12.90
2018-04-26T08:47:58.805Z,13.00
2018-04-26T08:50:25.794Z,13.00
2018-04-26T08:52:53.695Z,12.80
2018-04-26T08:55:20.700Z,12.80
2018-04-26T08:57:47.697Z,12.80
2018-04-26T09:00:14.740Z,12.80
2018-04-26T09:05:08.835Z,12.70
2018-04-26T09:07:35.857Z,12.40
2018-04-26T09:12:43.355Z,12.10
2018-04-26T09:15:10.530Z,12.10
2018-04-26T09:20:04.642Z,12.10
2018-04-26T09:22:32.067Z,12.20
2018-04-26T09:24:59.057Z,12.00
2018-04-26T09:27:26.095Z,12.00
2018-04-26T09:29:53.096Z,11.90
2018-04-26T09:32:20.863Z,11.90
2018-04-26T09:34:47.882Z,11.90
2018-04-26T09:37:14.873Z,12.00
2018-04-26T09:42:08.982Z,11.90
2018-04-26T09:44:35.978Z,11.80
2018-04-26T09:47:02.976Z,11.90
2018-04-26T09:49:30.005Z,11.90
2018-04-26T09:51:58.878Z,11.70
2018-04-26T09:54:23.989Z,11.70
2018-04-26T09:59:18.103Z,11.80
2018-04-26T10:01:45.135Z,11.60
2018-04-26T10:04:12.856Z,11.60
2018-04-26T10:06:39.848Z,11.70
2018-04-26T10:09:06.833Z,11.60
2018-04-26T10:11:33.868Z,11.70
2018-04-26T10:14:00.859Z,11.60
2018-04-26T10:18:55.935Z,11.40
2018-04-26T10:21:23.872Z,11.30
2018-04-26T10:23:50.873Z,11.40
2018-04-26T10:26:17.914Z,11.30
2018-04-26T10:28:44.906Z,11.30
2018-04-26T10:31:12.787Z,11.30
2018-04-26T10:33:39.819Z,11.10
2018-04-26T10:36:06.821Z,11.30
2018-04-26T10:41:12.323Z,13.60
2018-04-26T10:43:39.637Z,11.20
2018-04-26T10:46:06.640Z,11.20
2018-04-26T10:48:33.660Z,11.40
2018-04-26T10:51:00.663Z,11.40
2018-04-26T10:53:27.854Z,11.40
2018-04-26T10:58:21.945Z,11.30
2018-04-26T11:00:49.748Z,11.40
2018-04-26T11:03:16.772Z,11.40
2018-04-26T11:05:43.764Z,11.40
2018-04-26T11:08:10.770Z,11.50
2018-04-26T11:10:37.803Z,11.40
2018-04-26T11:13:04.794Z,11.50
2018-04-26T11:15:31.800Z,11.60
2018-04-26T11:17:58.808Z,11.60
2018-04-26T11:20:26.749Z,11.80
2018-04-26T11:22:53.751Z,11.90
2018-04-26T11:25:20.781Z,12.10
2018-04-26T11:27:47.783Z,12.10
2018-04-26T11:30:14.763Z,12.10
2018-04-26T11:35:09.112Z,12.40
2018-04-26T11:37:36.924Z,12.50
2018-04-26T11:40:03.962Z,12.50
2018-04-26T11:44:58.979Z,12.10
2018-04-26T11:47:26.026Z,12.00
2018-04-26T11:52:20.181Z,12.40
2018-04-26T11:54:47.151Z,12.40
2018-04-26T12:02:19.766Z,12.60
2018-04-26T12:04:46.719Z,12.80
2018-04-26T12:07:13.724Z,12.80
2018-04-26T12:09:40.749Z,12.80
2018-04-26T12:12:07.753Z,12.50
2018-04-26T12:14:34.747Z,12.50
2018-04-26T12:17:01.866Z,12.50
2018-04-26T12:19:28.861Z,12.50
2018-04-26T12:21:55.861Z,12.60
2018-04-26T12:24:22.889Z,12.40
2018-04-26T12:26:49.891Z,12.30
2018-04-26T12:29:19.019Z,11.90
2018-04-26T12:31:47.006Z,11.80
2018-04-26T12:34:14.010Z,11.80
2018-04-26T12:36:40.998Z,11.90
2018-04-26T12:39:08.032Z,11.90
2018-04-26T12:41:35.858Z,11.90
2018-04-26T12:44:04.951Z,12.20
2018-04-26T12:46:31.975Z,12.10
2018-04-26T12:48:58.975Z,12.10
2018-04-26T12:51:25.979Z,12.10
2018-04-26T12:53:53.016Z,12.00
2018-04-26T12:56:20.015Z,11.80
2018-04-26T13:01:14.159Z,11.90
2018-04-26T13:03:41.157Z,11.90
2018-04-26T13:06:08.152Z,11.80
2018-04-26T13:08:35.185Z,11.90
2018-04-26T13:11:02.187Z,11.80
2018-04-26T13:13:29.181Z,11.70
2018-04-26T13:15:56.217Z,11.60
2018-04-26T13:18:24.029Z,11.80
2018-04-26T13:23:18.195Z,11.70
2018-04-26T13:28:23.683Z,12.50
2018-04-26T13:33:17.767Z,12.10
2018-04-26T13:35:44.811Z,12.10
2018-04-26T13:38:11.820Z,12.10
2018-04-26T13:40:38.817Z,12.10
2018-04-26T13:45:32.938Z,12.10
2018-04-26T13:47:59.943Z,12.20
2018-04-26T13:52:55.211Z,12.30
2018-04-26T13:55:23.153Z,12.30
2018-04-26T13:57:50.190Z,12.10
2018-04-26T14:00:17.183Z,12.20
2018-04-26T14:02:44.181Z,12.40
2018-04-26T14:05:11.207Z,12.60
2018-04-26T14:07:39.141Z,12.80
2018-04-26T14:10:06.981Z,12.80
2018-04-26T14:12:33.993Z,12.90
2018-04-26T14:15:00.989Z,12.90
2018-04-26T14:17:28.061Z,12.90
2018-04-26T14:19:55.031Z,12.80
2018-04-26T14:24:50.088Z,12.90
2018-04-26T14:27:17.117Z,13.10
2018-04-26T14:29:45.076Z,13.20
2018-04-26T14:32:12.075Z,13.10
2018-04-26T14:34:39.107Z,13.10
2018-04-26T14:37:06.201Z,12.90
2018-04-26T14:39:34.051Z,13.00
2018-04-26T14:42:01.103Z,12.90
2018-04-26T14:44:28.106Z,12.70
2018-04-26T14:46:55.118Z,12.80
2018-04-26T14:49:22.974Z,12.90
2018-04-26T14:54:28.493Z,13.70
2018-04-26T14:56:55.556Z,13.00
2018-04-26T14:59:22.481Z,13.00
2018-04-26T15:01:49.508Z,12.90
2018-04-26T15:04:16.510Z,13.00
2018-04-26T15:06:43.515Z,13.10
2018-04-26T15:09:10.552Z,13.20
2018-04-26T15:11:37.547Z,13.10
2018-04-26T15:14:04.555Z,13.10
2018-04-26T15:16:31.579Z,13.20
2018-04-26T15:18:58.569Z,13.20
2018-04-26T15:23:52.935Z,13.10
2018-04-26T15:26:19.933Z,13.20
2018-04-26T15:28:46.934Z,13.20
2018-04-26T15:31:13.951Z,13.00
2018-04-26T15:33:40.941Z,13.00
2018-04-26T15:36:07.943Z,13.00
2018-04-26T15:38:34.968Z,13.00
2018-04-26T15:41:03.410Z,13.00
2018-04-26T15:43:30.165Z,13.00
2018-04-26T15:45:57.297Z,12.80
2018-04-26T15:48:24.180Z,12.60
2018-04-26T15:50:52.181Z,12.70
2018-04-26T15:53:31.037Z,12.70
2018-04-26T15:56:09.906Z,12.60
2018-04-26T16:01:26.789Z,13.20
2018-04-26T16:04:05.666Z,13.00
2018-04-26T16:06:44.647Z,13.10
2018-04-26T16:09:23.488Z,12.80
2018-04-26T16:14:49.065Z,13.50
2018-04-26T16:17:28.010Z,12.90
2018-04-26T16:27:57.536Z,12.90
2018-04-26T16:30:34.504Z,12.70
2018-04-26T16:33:13.919Z,12.70
2018-04-26T16:35:52.803Z,12.30
2018-04-26T16:38:31.639Z,12.40
2018-04-26T16:41:00.387Z,12.30
2018-04-26T16:43:30.701Z,12.10
2018-04-26T16:45:58.012Z,11.90
2018-04-26T16:48:25.867Z,12.00
2018-04-26T16:50:52.875Z,12.00
2018-04-26T16:53:21.017Z,12.00
2018-04-26T16:55:48.006Z,12.00
2018-04-26T17:00:42.100Z,12.00
2018-04-26T17:03:09.138Z,11.90
2018-04-26T17:05:36.147Z,11.80
2018-04-26T17:08:03.151Z,11.80
2018-04-26T17:12:57.319Z,11.80
2018-04-26T17:15:24.404Z,11.60
2018-04-26T17:17:51.456Z,11.70
2018-04-26T17:20:18.880Z,11.60
2018-04-26T17:25:13.757Z,11.80
2018-04-26T17:27:40.748Z,11.60
2018-04-26T17:30:08.095Z,11.60
2018-04-26T17:35:02.258Z,11.50
2018-04-26T17:37:29.501Z,11.50
2018-04-26T17:39:56.553Z,11.50
2018-04-26T17:42:23.700Z,11.40
2018-04-26T17:44:50.634Z,11.30
2018-04-26T17:47:17.668Z,11.20
2018-04-26T17:49:44.669Z,11.20
2018-04-26T17:57:17.296Z,13.70
2018-04-26T17:59:44.314Z,11.30
2018-04-26T18:04:38.415Z,11.30
2018-04-26T18:07:05.432Z,11.30
2018-04-26T18:09:32.486Z,11.30
2018-04-26T18:11:59.435Z,11.40
2018-04-26T18:14:26.528Z,11.40
2018-04-26T18:16:53.533Z,11.30
2018-04-26T18:19:20.552Z,11.20
2018-04-26T18:21:47.579Z,11.20
2018-04-26T18:24:14.580Z,11.20
2018-04-26T18:26:42.525Z,11.20
2018-04-26T18:29:09.567Z,11.20
2018-04-26T18:31:36.559Z,11.10
2018-04-26T18:34:05.099Z,11.10
2018-04-26T18:36:31.160Z,11.10
2018-04-26T18:38:58.141Z,11.00
2018-04-26T18:41:25.140Z,10.90
2018-04-26T18:43:52.186Z,10.90
2018-04-26T18:46:19.183Z,11.00
2018-04-26T18:48:46.177Z,11.00
2018-04-26T18:51:13.229Z,11.00
2018-04-26T18:53:41.072Z,11.00
2018-04-26T18:56:08.073Z,11.10
2018-04-26T18:58:35.114Z,11.20
2018-04-26T19:01:02.165Z,11.30
2018-04-26T19:03:29.156Z,11.30
2018-04-26T19:05:56.233Z,11.40
2018-04-26T19:08:23.642Z,11.40
2018-04-26T19:10:51.571Z,11.30
2018-04-26T19:13:18.721Z,11.20
2018-04-26T19:15:45.692Z,11.20
2018-04-26T19:20:53.463Z,13.10
2018-04-26T19:23:20.487Z,11.20
2018-04-26T19:25:48.466Z,11.30
2018-04-26T19:28:15.467Z,11.30
2018-04-26T19:30:42.492Z,11.20
2018-04-26T19:33:09.507Z,11.00
2018-04-26T19:35:36.545Z,11.10
2018-04-26T19:38:03.561Z,11.10
2018-04-26T19:40:30.574Z,11.00
2018-04-26T19:42:57.617Z,10.30
2018-04-26T19:45:24.617Z,11.10
2018-04-26T19:47:51.661Z,11.10
2018-04-26T19:50:18.692Z,10.90
2018-04-26T19:52:46.056Z,11.00
2018-04-26T19:55:12.999Z,11.10
2018-04-26T19:57:40.334Z,11.10
2018-04-26T20:00:07.508Z,11.10
2018-04-26T20:02:34.545Z,11.10
2018-04-26T20:05:01.575Z,11.20
2018-04-26T20:07:28.586Z,11.10
2018-04-26T20:09:55.597Z,11.10
2018-04-26T20:12:22.637Z,11.20
2018-04-26T20:14:49.667Z,11.10
2018-04-26T20:17:16.671Z,11.10
2018-04-26T20:19:43.695Z,11.20
2018-04-26T20:22:10.698Z,11.10
2018-04-26T20:24:37.708Z,11.00
2018-04-26T20:27:04.753Z,11.10
2018-04-26T20:29:31.780Z,11.10
2018-04-26T20:31:58.849Z,10.90
2018-04-26T20:34:25.934Z,10.90
2018-04-26T20:36:52.974Z,10.90
2018-04-26T20:39:19.989Z,10.80
2018-04-26T20:44:42.206Z,10.70
2018-04-26T20:47:09.255Z,10.80
2018-04-26T20:49:36.252Z,10.80
2018-04-26T20:52:03.733Z,10.80
2018-04-26T20:56:57.885Z,10.80
2018-04-26T20:59:27.555Z,10.80
2018-04-26T21:01:54.632Z,10.70
2018-04-26T21:04:21.631Z,10.60
2018-04-26T21:06:48.642Z,10.60
2018-04-26T21:09:19.965Z,10.70
2018-04-26T21:11:46.976Z,10.70
2018-04-26T21:16:54.074Z,12.10
2018-04-26T21:19:21.067Z,10.60
2018-04-26T21:21:48.065Z,10.60
2018-04-26T21:24:15.104Z,10.60
2018-04-26T21:26:42.124Z,10.70
2018-04-26T21:29:10.898Z,10.80
2018-04-26T21:31:37.974Z,10.80
2018-04-26T21:34:04.976Z,10.70
2018-04-26T21:36:32.020Z,10.70
2018-04-26T21:44:50.848Z,10.50
2018-04-26T21:47:17.883Z,10.60
2018-04-26T21:49:44.887Z,10.70
2018-04-26T21:52:13.522Z,10.70
2018-04-26T21:54:40.582Z,10.70
2018-04-26T21:57:07.549Z,10.70
2018-04-26T21:59:34.613Z,10.70
2018-04-26T22:02:01.615Z,10.80
2018-04-26T22:04:28.639Z,10.80
2018-04-26T22:06:55.686Z,10.80
2018-04-26T22:09:22.727Z,10.80
2018-04-26T22:11:49.735Z,10.80
2018-04-26T22:14:16.803Z,10.80
2018-04-26T22:16:43.832Z,10.70
2018-04-26T22:19:10.845Z,10.70
2018-04-26T22:21:37.927Z,11.90
2018-04-26T22:24:04.941Z,10.90
2018-04-26T22:26:31.928Z,10.90
2018-04-26T22:28:58.990Z,10.90
2018-04-26T22:31:25.996Z,11.00
2018-04-26T22:33:52.983Z,10.90
2018-04-26T22:38:47.473Z,10.80
2018-04-26T22:43:54.077Z,11.80
2018-04-26T22:46:21.841Z,10.90
2018-04-26T22:48:49.455Z,10.90
2018-04-26T22:51:16.939Z,10.80
2018-04-26T22:56:28.818Z,10.70
2018-04-26T22:58:56.031Z,10.50
2018-04-26T23:01:23.311Z,10.40
2018-04-26T23:03:50.350Z,10.40
2018-04-26T23:06:20.314Z,10.30
2018-04-26T23:08:47.316Z,10.40
2018-04-26T23:11:14.359Z,10.40
2018-04-26T23:13:41.361Z,10.30
2018-04-26T23:16:08.348Z,10.20
2018-04-26T23:18:35.380Z,10.10
2018-04-26T23:21:02.452Z,9.90
2018-04-26T23:26:14.210Z,9.60
2018-04-26T23:28:41.223Z,9.70
2018-04-26T23:31:08.263Z,9.70
2018-04-26T23:33:35.752Z,9.70
2018-04-26T23:36:02.766Z,9.60
2018-04-26T23:38:29.800Z,9.60
2018-04-26T23:40:56.861Z,9.60
2018-04-26T23:43:28.507Z,9.60
2018-04-26T23:45:59.122Z,9.60
2018-04-26T23:48:26.139Z,9.70
2018-04-26T23:53:35.939Z,9.60
2018-04-26T23:56:03.717Z,9.80
2018-04-26T23:58:30.731Z,9.80
